createdAt,value
2023-02-02T00:00:42.235Z,3.9
2023-02-02T00:01:43.666Z,3.9
2023-02-02T00:02:45.136Z,3.9
2023-02-02T00:03:46.887Z,3.9
2023-02-02T00:04:48.375Z,3.9
2023-02-02T00:05:49.791Z,3.9
2023-02-02T00:06:51.223Z,3.9
2023-02-02T00:07:52.637Z,3.9
2023-02-02T00:08:54.042Z,3.9
2023-02-02T00:09:55.481Z,3.9
2023-02-02T00:10:56.931Z,3.9
2023-02-02T00:11:58.323Z,3.9
2023-02-02T00:12:59.724Z,3.9
2023-02-02T00:14:01.144Z,3.9
2023-02-02T00:15:02.554Z,3.9
2023-02-02T00:16:04.037Z,4
2023-02-02T00:17:05.494Z,4
2023-02-02T00:18:06.890Z,4
2023-02-02T00:19:08.310Z,4
2023-02-02T00:20:09.727Z,4
2023-02-02T00:21:11.141Z,4
2023-02-02T00:22:12.568Z,4
2023-02-02T00:23:13.967Z,4
2023-02-02T00:24:15.378Z,4
2023-02-02T00:25:16.823Z,4
2023-02-02T00:26:18.280Z,4
2023-02-02T00:27:19.839Z,4.1
2023-02-02T00:28:21.242Z,4.1
2023-02-02T00:29:22.659Z,4.1
2023-02-02T00:30:24.095Z,4.1
2023-02-02T00:31:25.653Z,4.1
2023-02-02T00:32:27.090Z,4.1
2023-02-02T00:33:28.490Z,4.1
2023-02-02T00:34:29.901Z,4.1
2023-02-02T00:35:31.320Z,4.1
2023-02-02T00:36:32.730Z,4.1
2023-02-02T00:37:34.231Z,4.1
2023-02-02T00:38:35.603Z,4.1
2023-02-02T00:39:37.015Z,4.1
2023-02-02T00:40:38.454Z,4.1
2023-02-02T00:41:39.864Z,4
2023-02-02T00:42:41.279Z,4
2023-02-02T00:43:42.685Z,4
2023-02-02T00:44:44.091Z,4
2023-02-02T00:45:45.592Z,4
2023-02-02T00:46:47.068Z,4
2023-02-02T00:47:48.456Z,4
2023-02-02T00:48:49.867Z,4
2023-02-02T00:49:51.282Z,4
2023-02-02T00:50:52.697Z,4
2023-02-02T00:51:54.235Z,4
2023-02-02T00:52:55.636Z,4
2023-02-02T00:53:57.030Z,4
2023-02-02T00:54:58.441Z,4
2023-02-02T00:55:59.924Z,4
2023-02-02T00:57:01.364Z,4
2023-02-02T00:58:02.757Z,4
2023-02-02T00:59:04.172Z,4
2023-02-02T01:00:05.588Z,4
2023-02-02T01:01:07.029Z,4
2023-02-02T01:02:08.557Z,4
2023-02-02T01:03:10.056Z,4
2023-02-02T01:04:11.471Z,4
2023-02-02T01:05:12.879Z,4
2023-02-02T01:06:14.296Z,4
2023-02-02T01:07:15.723Z,4
2023-02-02T01:08:17.130Z,4
2023-02-02T01:09:18.542Z,4
2023-02-02T01:10:19.957Z,4
2023-02-02T01:11:21.396Z,4
2023-02-02T01:12:22.848Z,4
2023-02-02T01:13:24.252Z,4
2023-02-02T01:14:25.674Z,4
2023-02-02T01:15:27.086Z,3.9
2023-02-02T01:16:28.557Z,3.9
2023-02-02T01:17:30.075Z,3.9
2023-02-02T01:18:31.479Z,3.9
2023-02-02T01:19:32.888Z,3.9
2023-02-02T01:20:34.302Z,3.9
2023-02-02T01:21:35.720Z,3.9
2023-02-02T01:22:37.151Z,3.9
2023-02-02T01:23:38.550Z,3.9
2023-02-02T01:24:39.958Z,3.9
2023-02-02T01:25:41.377Z,3.9
2023-02-02T01:26:42.952Z,3.9
2023-02-02T01:27:44.692Z,3.9
2023-02-02T01:28:46.092Z,3.9
2023-02-02T01:29:47.510Z,3.9
2023-02-02T01:30:48.979Z,3.9
2023-02-02T01:31:50.505Z,3.9
2023-02-02T01:32:52.164Z,3.9
2023-02-02T01:33:53.576Z,3.9
2023-02-02T01:34:55.009Z,3.9
2023-02-02T01:35:56.391Z,3.9
2023-02-02T01:36:57.945Z,3.9
2023-02-02T01:37:59.360Z,3.9
2023-02-02T01:39:00.772Z,3.9
2023-02-02T01:40:02.199Z,3.9
2023-02-02T01:41:03.594Z,3.9
2023-02-02T01:42:05.179Z,3.9
2023-02-02T01:43:06.696Z,3.9
2023-02-02T01:44:08.112Z,3.9
2023-02-02T01:45:09.556Z,3.9
2023-02-02T01:46:10.971Z,3.9
2023-02-02T01:47:12.504Z,3.9
2023-02-02T01:48:13.938Z,3.9
2023-02-02T01:49:15.338Z,3.9
2023-02-02T01:50:17.169Z,3.8
2023-02-02T01:51:18.550Z,3.8
2023-02-02T01:52:19.970Z,3.8
2023-02-02T01:53:21.371Z,3.8
2023-02-02T01:54:22.786Z,3.8
2023-02-02T01:55:24.494Z,3.8
2023-02-02T01:56:26.764Z,3.8
2023-02-02T01:57:28.207Z,3.8
2023-02-02T01:58:29.604Z,3.8
2023-02-02T01:59:31.032Z,3.8
2023-02-02T02:00:32.456Z,3.8
2023-02-02T02:01:33.974Z,3.8
2023-02-02T02:02:35.624Z,3.9
2023-02-02T02:03:37.052Z,3.9
2023-02-02T02:04:38.489Z,3.9
2023-02-02T02:05:39.905Z,3.9
2023-02-02T02:06:41.298Z,3.9
2023-02-02T02:07:42.713Z,4
2023-02-02T02:08:44.127Z,4
2023-02-02T02:09:45.547Z,4
2023-02-02T02:10:47.035Z,4
2023-02-02T02:11:48.419Z,4
2023-02-02T02:12:49.863Z,4.1
2023-02-02T02:13:51.262Z,4.1
2023-02-02T02:14:52.667Z,4.1
2023-02-02T02:15:54.103Z,4.1
2023-02-02T02:16:55.582Z,4.1
2023-02-02T02:17:57.020Z,4.1
2023-02-02T02:18:58.438Z,4.1
2023-02-02T02:19:59.854Z,4.1
2023-02-02T02:21:01.336Z,4.1
2023-02-02T02:22:02.719Z,4.1
2023-02-02T02:23:04.134Z,4.1
2023-02-02T02:24:05.305Z,4.1
2023-02-02T02:25:06.730Z,4.1
2023-02-02T02:26:08.142Z,4.1
2023-02-02T02:27:09.545Z,4.2
2023-02-02T02:28:10.986Z,4.2
2023-02-02T02:29:12.390Z,4.2
2023-02-02T02:30:13.788Z,4.1
2023-02-02T02:31:15.268Z,4.1
2023-02-02T02:32:17.078Z,4.1
2023-02-02T02:33:18.502Z,4.1
2023-02-02T02:34:19.928Z,4.1
2023-02-02T02:35:21.375Z,4.1
2023-02-02T02:36:23.687Z,4.1
2023-02-02T02:37:25.078Z,4.1
2023-02-02T02:38:26.490Z,4.1
2023-02-02T02:39:27.912Z,4.1
2023-02-02T02:40:29.332Z,4.1
2023-02-02T02:41:30.761Z,4.1
2023-02-02T02:42:32.148Z,4.1
2023-02-02T02:43:33.609Z,4.1
2023-02-02T02:44:34.995Z,4.1
2023-02-02T02:45:36.404Z,4.1
2023-02-02T02:46:37.852Z,4.1
2023-02-02T02:47:39.240Z,4.1
2023-02-02T02:48:40.656Z,4.1
2023-02-02T02:49:42.070Z,4.1
2023-02-02T02:50:43.483Z,4.2
2023-02-02T02:51:45.384Z,4.2
2023-02-02T02:52:46.774Z,4.2
2023-02-02T02:53:48.173Z,4.2
2023-02-02T02:54:49.587Z,4.2
2023-02-02T02:55:51.001Z,4.2
2023-02-02T02:56:52.448Z,4.2
2023-02-02T02:57:53.832Z,4.2
2023-02-02T02:58:55.369Z,4.2
2023-02-02T02:59:56.788Z,4.3
2023-02-02T03:00:58.200Z,4.3
2023-02-02T03:01:59.624Z,4.3
2023-02-02T03:03:01.030Z,4.3
2023-02-02T03:04:02.444Z,4.3
2023-02-02T03:05:03.867Z,4.3
2023-02-02T03:06:05.274Z,4.3
2023-02-02T03:07:06.698Z,4.3
2023-02-02T03:08:08.106Z,4.3
2023-02-02T03:09:09.518Z,4.3
2023-02-02T03:10:10.936Z,4.4
2023-02-02T03:11:12.446Z,4.4
2023-02-02T03:12:13.878Z,4.4
2023-02-02T03:13:15.272Z,4.4
2023-02-02T03:14:16.711Z,4.4
2023-02-02T03:15:18.099Z,4.4
2023-02-02T03:16:19.511Z,4.4
2023-02-02T03:17:20.956Z,4.4
2023-02-02T03:18:22.346Z,4.4
2023-02-02T03:19:23.778Z,4.4
2023-02-02T03:20:25.248Z,4.4
2023-02-02T03:21:26.620Z,4.4
2023-02-02T03:22:28.046Z,4.4
2023-02-02T03:23:29.456Z,4.4
2023-02-02T03:24:30.869Z,4.4
2023-02-02T03:25:32.284Z,4.4
2023-02-02T03:26:33.708Z,4.4
2023-02-02T03:27:35.206Z,4.4
2023-02-02T03:28:36.610Z,4.4
2023-02-02T03:29:38.040Z,4.3
2023-02-02T03:30:39.433Z,4.3
2023-02-02T03:31:41.120Z,4.3
2023-02-02T03:32:42.718Z,4.3
2023-02-02T03:33:44.111Z,4.3
2023-02-02T03:34:45.526Z,4.3
2023-02-02T03:35:46.938Z,4.3
2023-02-02T03:36:48.356Z,4.3
2023-02-02T03:37:49.805Z,4.2
2023-02-02T03:38:51.183Z,4.2
2023-02-02T03:39:53.776Z,4.2
2023-02-02T03:40:55.328Z,4.2
2023-02-02T03:41:56.755Z,4.2
2023-02-02T03:42:58.181Z,4.2
2023-02-02T03:43:59.576Z,4.2
2023-02-02T03:45:01.018Z,4.2
2023-02-02T03:46:02.616Z,4.1
2023-02-02T03:47:04.197Z,4.1
2023-02-02T03:48:05.681Z,4.1
2023-02-02T03:49:07.079Z,4.1
2023-02-02T03:50:09.872Z,4.1
2023-02-02T03:51:11.482Z,4.1
2023-02-02T03:52:12.937Z,4.1
2023-02-02T03:53:14.868Z,4.1
2023-02-02T03:54:16.240Z,4.1
2023-02-02T03:55:17.708Z,4.1
2023-02-02T03:56:19.077Z,4.1
2023-02-02T03:57:20.491Z,4.1
2023-02-02T03:58:21.927Z,4.1
2023-02-02T03:59:23.478Z,4.1
2023-02-02T04:00:24.923Z,4.1
2023-02-02T04:01:26.324Z,4.1
2023-02-02T04:02:27.784Z,4.1
2023-02-02T04:03:29.306Z,4.1
2023-02-02T04:04:30.708Z,4.1
2023-02-02T04:05:32.134Z,4.1
2023-02-02T04:06:33.552Z,4.1
2023-02-02T04:07:34.952Z,4.1
2023-02-02T04:08:36.373Z,4.1
2023-02-02T04:09:37.787Z,4.1
2023-02-02T04:10:39.195Z,4.1
2023-02-02T04:11:40.657Z,4.1
2023-02-02T04:12:42.024Z,4.1
2023-02-02T04:13:43.459Z,4.1
2023-02-02T04:14:44.854Z,4.1
2023-02-02T04:15:46.312Z,4.1
2023-02-02T04:16:47.703Z,4.1
2023-02-02T04:17:49.100Z,4.1
2023-02-02T04:18:50.516Z,4.1
2023-02-02T04:19:51.928Z,4.1
2023-02-02T04:20:53.344Z,4.1
2023-02-02T04:21:54.767Z,4.1
2023-02-02T04:22:56.177Z,4.1
2023-02-02T04:23:57.589Z,4.1
2023-02-02T04:24:59.002Z,4.1
2023-02-02T04:26:00.436Z,4.1
2023-02-02T04:27:01.856Z,4.1
2023-02-02T04:28:03.251Z,4.1
2023-02-02T04:29:04.661Z,4.1
2023-02-02T04:30:06.086Z,4.1
2023-02-02T04:31:07.617Z,4.1
2023-02-02T04:32:09.547Z,4.1
2023-02-02T04:33:10.948Z,4.1
2023-02-02T04:34:12.366Z,4.1
2023-02-02T04:35:13.782Z,4.1
2023-02-02T04:36:15.193Z,4.1
2023-02-02T04:37:16.617Z,4.1
2023-02-02T04:38:18.041Z,4.1
2023-02-02T04:39:19.439Z,4.1
2023-02-02T04:40:20.879Z,4.1
2023-02-02T04:41:22.289Z,4.1
2023-02-02T04:42:23.710Z,4.1
2023-02-02T04:43:25.118Z,4.1
2023-02-02T04:44:26.541Z,4.1
2023-02-02T04:45:28.200Z,4.1
2023-02-02T04:46:30.056Z,4.1
2023-02-02T04:47:31.432Z,4.1
2023-02-02T04:48:32.842Z,4.1
2023-02-02T04:49:34.273Z,4.1
2023-02-02T04:50:35.674Z,4.1
2023-02-02T04:51:37.090Z,4.1
2023-02-02T04:52:38.520Z,4.1
2023-02-02T04:53:39.936Z,4.1
2023-02-02T04:54:41.333Z,4.1
2023-02-02T04:55:42.751Z,4.1
2023-02-02T04:56:44.176Z,4.1
2023-02-02T04:57:45.591Z,4.1
2023-02-02T04:58:46.999Z,4.1
2023-02-02T04:59:48.423Z,4.1
2023-02-02T05:00:49.865Z,4.1
2023-02-02T05:01:51.323Z,4.1
2023-02-02T05:02:52.699Z,4.1
2023-02-02T05:03:54.117Z,4.1
2023-02-02T05:04:55.527Z,4.1
2023-02-02T05:05:57.064Z,4.1
2023-02-02T05:06:58.484Z,4.1
2023-02-02T05:07:59.903Z,4.1
2023-02-02T05:09:01.316Z,4.1
2023-02-02T05:10:02.734Z,4.1
2023-02-02T05:11:04.147Z,4.1
2023-02-02T05:12:05.581Z,4.1
2023-02-02T05:13:06.976Z,4.1
2023-02-02T05:14:08.397Z,4.1
2023-02-02T05:15:09.801Z,4.1
2023-02-02T05:16:11.242Z,4.1
2023-02-02T05:17:12.749Z,4.1
2023-02-02T05:18:14.126Z,4.1
2023-02-02T05:19:15.543Z,4.1
2023-02-02T05:20:16.975Z,4.2
2023-02-02T05:21:18.375Z,4.2
2023-02-02T05:22:19.804Z,4.2
2023-02-02T05:23:21.205Z,4.2
2023-02-02T05:24:22.614Z,4.2
2023-02-02T05:25:24.377Z,4.2
2023-02-02T05:26:27.068Z,4.2
2023-02-02T05:27:28.517Z,4.2
2023-02-02T05:28:29.923Z,4.2
2023-02-02T05:29:31.332Z,4.3
2023-02-02T05:30:33.666Z,4.3
2023-02-02T05:31:35.467Z,4.2
2023-02-02T05:32:37.032Z,4.2
2023-02-02T05:33:38.411Z,4.2
2023-02-02T05:34:39.844Z,4.3
2023-02-02T05:35:41.242Z,4.2
2023-02-02T05:36:42.663Z,4.2
2023-02-02T05:37:44.084Z,4.2
2023-02-02T05:38:45.509Z,4.2
2023-02-02T05:39:46.963Z,4.2
2023-02-02T05:40:48.345Z,4.2
2023-02-02T05:41:49.765Z,4.2
2023-02-02T05:42:51.176Z,4.2
2023-02-02T05:43:52.593Z,4.2
2023-02-02T05:44:54.043Z,4.2
2023-02-02T05:45:55.442Z,4.2
2023-02-02T05:46:56.924Z,4.2
2023-02-02T05:47:58.395Z,4.2
2023-02-02T05:48:59.780Z,4.2
2023-02-02T05:50:01.206Z,4.2
2023-02-02T05:51:02.629Z,4.2
2023-02-02T05:52:04.162Z,4.2
2023-02-02T05:53:05.579Z,4.2
2023-02-02T05:54:06.998Z,4.2
2023-02-02T05:55:08.426Z,4.2
2023-02-02T05:56:09.826Z,4.1
2023-02-02T05:57:11.240Z,4.2
2023-02-02T05:58:12.657Z,4.1
2023-02-02T05:59:13.831Z,4.1
2023-02-02T06:00:15.542Z,4.1
2023-02-02T06:01:16.920Z,4.1
2023-02-02T06:02:18.335Z,4.1
2023-02-02T06:03:19.857Z,4.1
2023-02-02T06:04:21.658Z,4.1
2023-02-02T06:05:23.467Z,4.1
2023-02-02T06:06:26.182Z,4.1
2023-02-02T06:07:27.597Z,4.1
2023-02-02T06:08:29.012Z,4.1
2023-02-02T06:09:30.437Z,4.1
2023-02-02T06:10:31.874Z,4.1
2023-02-02T06:11:33.257Z,4.1
2023-02-02T06:12:34.673Z,4.1
2023-02-02T06:13:36.110Z,4
2023-02-02T06:14:37.504Z,4.1
2023-02-02T06:15:38.964Z,4
2023-02-02T06:16:40.376Z,4
2023-02-02T06:17:41.783Z,4
2023-02-02T06:18:43.223Z,4
2023-02-02T06:19:44.623Z,4.1
2023-02-02T06:20:46.067Z,4.1
2023-02-02T06:21:47.471Z,4
2023-02-02T06:22:48.897Z,4.1
2023-02-02T06:23:50.302Z,4
2023-02-02T06:24:51.722Z,4.1
2023-02-02T06:25:53.156Z,4.1
2023-02-02T06:26:54.587Z,4
2023-02-02T06:27:56.195Z,4
2023-02-02T06:28:57.605Z,4
2023-02-02T06:29:59.019Z,4
2023-02-02T06:31:00.604Z,4
2023-02-02T06:32:02.331Z,4.1
2023-02-02T06:33:03.914Z,4.1
2023-02-02T06:34:05.333Z,4.1
2023-02-02T06:35:06.510Z,4.1
2023-02-02T06:36:07.935Z,4.1
2023-02-02T06:37:09.368Z,4.1
2023-02-02T06:38:10.758Z,4.1
2023-02-02T06:39:12.177Z,4.1
2023-02-02T06:40:13.596Z,4.1
2023-02-02T06:41:15.027Z,4.1
2023-02-02T06:42:21.493Z,4.1
2023-02-02T06:43:23.206Z,4.1
2023-02-02T06:44:24.620Z,4.1
2023-02-02T06:45:27.023Z,4.1
2023-02-02T06:46:28.700Z,4.2
2023-02-02T06:47:30.259Z,4.2
2023-02-02T06:48:31.686Z,4.2
2023-02-02T06:49:33.117Z,4.2
2023-02-02T06:50:34.505Z,4.2
2023-02-02T06:51:35.933Z,4.2
2023-02-02T06:52:37.337Z,4.2
2023-02-02T06:53:38.751Z,4.2
2023-02-02T06:54:40.164Z,4.2
2023-02-02T06:55:41.587Z,4.2
2023-02-02T06:56:43.021Z,4.2
2023-02-02T06:57:44.413Z,4.2
2023-02-02T06:58:45.828Z,4.3
2023-02-02T06:59:47.262Z,4.3
2023-02-02T07:00:48.674Z,4.3
2023-02-02T07:01:50.550Z,4.3
2023-02-02T07:02:52.064Z,4.3
2023-02-02T07:03:53.617Z,4.3
2023-02-02T07:04:55.096Z,4.3
2023-02-02T07:05:56.471Z,4.3
2023-02-02T07:06:57.905Z,4.3
2023-02-02T07:07:59.316Z,4.3
2023-02-02T07:09:02.459Z,4.3
2023-02-02T07:10:04.663Z,4.3
2023-02-02T07:11:09.633Z,4.3
2023-02-02T07:12:18.566Z,4.3
2023-02-02T07:13:21.950Z,4.3
2023-02-02T07:14:23.361Z,4.3
2023-02-02T07:15:25.108Z,4.3
2023-02-02T07:16:27.383Z,4.3
2023-02-02T07:17:28.815Z,4.3
2023-02-02T07:18:30.216Z,4.3
2023-02-02T07:19:31.626Z,4.4
2023-02-02T07:20:33.074Z,4.4
2023-02-02T07:21:34.575Z,4.4
2023-02-02T07:22:36.759Z,4.4
2023-02-02T07:23:38.292Z,4.4
2023-02-02T07:24:39.717Z,4.4
2023-02-02T07:25:43.566Z,4.4
2023-02-02T07:26:45.204Z,4.4
2023-02-02T07:27:46.770Z,4.4
2023-02-02T07:28:48.177Z,4.4
2023-02-02T07:29:49.596Z,4.4
2023-02-02T07:30:51.183Z,4.4
2023-02-02T07:31:53.151Z,4.4
2023-02-02T07:32:54.606Z,4.4
2023-02-02T07:33:56.007Z,4.5
2023-02-02T07:34:57.426Z,4.5
2023-02-02T07:35:58.866Z,4.5
2023-02-02T07:37:00.280Z,4.5
2023-02-02T07:38:01.673Z,4.5
2023-02-02T07:39:03.090Z,4.5
2023-02-02T07:40:04.506Z,4.5
2023-02-02T07:41:05.942Z,4.5
2023-02-02T07:42:07.342Z,4.5
2023-02-02T07:43:08.763Z,4.5
2023-02-02T07:44:10.166Z,4.6
2023-02-02T07:45:24.825Z,4.6
2023-02-02T07:46:29.471Z,4.6
2023-02-02T07:47:31.163Z,4.6
2023-02-02T07:48:32.565Z,4.6
2023-02-02T07:49:33.985Z,4.6
2023-02-02T07:50:35.400Z,4.6
2023-02-02T07:51:38.886Z,4.6
2023-02-02T07:52:48.346Z,4.6
2023-02-02T07:53:49.762Z,4.6
2023-02-02T07:54:51.163Z,4.7
2023-02-02T07:56:14.164Z,4.7
2023-02-02T07:57:15.572Z,4.7
2023-02-02T07:58:17.030Z,4.7
2023-02-02T07:59:18.407Z,4.7
2023-02-02T08:00:19.825Z,4.7
2023-02-02T08:01:21.239Z,4.8
2023-02-02T08:02:22.684Z,4.8
2023-02-02T08:03:24.087Z,4.8
2023-02-02T08:04:25.508Z,4.8
2023-02-02T08:05:27.313Z,4.8
2023-02-02T08:06:29.279Z,4.9
2023-02-02T08:07:30.997Z,4.9
2023-02-02T08:08:32.400Z,4.9
2023-02-02T08:09:33.819Z,4.9
2023-02-02T08:10:35.221Z,5
2023-02-02T08:11:36.634Z,5
2023-02-02T08:12:38.048Z,5
2023-02-02T08:13:39.471Z,5.1
2023-02-02T08:14:40.885Z,5.1
2023-02-02T08:15:42.299Z,5.1
2023-02-02T08:16:43.709Z,5.1
2023-02-02T08:17:45.124Z,5.1
2023-02-02T08:18:46.547Z,5.2
2023-02-02T08:19:47.961Z,5.2
2023-02-02T08:20:49.423Z,5.2
2023-02-02T08:21:50.814Z,5.3
2023-02-02T08:22:52.254Z,5.3
2023-02-02T08:23:53.663Z,5.3
2023-02-02T08:24:55.061Z,5.3
2023-02-02T08:25:56.465Z,5.3
2023-02-02T08:26:57.944Z,5.3
2023-02-02T08:27:59.549Z,5.3
2023-02-02T08:29:00.975Z,5.3
2023-02-02T08:30:02.420Z,5.3
2023-02-02T08:31:03.829Z,5.3
2023-02-02T08:32:05.239Z,5.4
2023-02-02T08:33:06.662Z,5.4
2023-02-02T08:34:08.077Z,5.4
2023-02-02T08:35:09.494Z,5.4
2023-02-02T08:36:10.900Z,5.4
2023-02-02T08:37:12.314Z,5.5
2023-02-02T08:38:13.760Z,5.5
2023-02-02T08:39:15.214Z,5.5
2023-02-02T08:40:16.715Z,5.5
2023-02-02T08:41:18.373Z,5.6
2023-02-02T08:42:19.786Z,5.6
2023-02-02T08:43:21.199Z,5.6
2023-02-02T08:44:22.705Z,5.6
2023-02-02T08:47:04.528Z,5.7
2023-02-02T08:48:11.904Z,5.7
2023-02-02T08:49:14.071Z,5.7
2023-02-02T08:50:15.499Z,5.7
2023-02-02T08:51:16.898Z,5.7
2023-02-02T08:52:18.310Z,5.8
2023-02-02T08:53:19.754Z,5.8
2023-02-02T08:54:21.142Z,5.8
2023-02-02T08:55:22.822Z,5.8
2023-02-02T08:56:25.333Z,5.9
2023-02-02T08:57:26.879Z,5.9
2023-02-02T08:58:28.293Z,5.9
2023-02-02T08:59:29.709Z,5.9
2023-02-02T09:00:31.135Z,6
2023-02-02T09:01:32.563Z,6
2023-02-02T09:02:33.979Z,6
2023-02-02T09:03:35.408Z,6
2023-02-02T09:04:36.832Z,6
2023-02-02T09:05:38.280Z,6
2023-02-02T09:06:39.664Z,6.1
2023-02-02T09:07:41.126Z,6.1
2023-02-02T09:08:42.605Z,6.1
2023-02-02T09:09:44.373Z,6.1
2023-02-02T09:10:45.811Z,6.1
2023-02-02T09:11:47.209Z,6.1
2023-02-02T09:12:48.623Z,6.1
2023-02-02T09:13:50.037Z,6.1
2023-02-02T09:14:51.457Z,6.1
2023-02-02T09:15:52.891Z,6.2
2023-02-02T09:16:54.377Z,6.2
2023-02-02T09:17:56.205Z,6.2
2023-02-02T09:18:57.661Z,6.1
2023-02-02T09:19:59.043Z,6.1
2023-02-02T09:21:00.556Z,6.1
2023-02-02T09:22:01.932Z,6.2
2023-02-02T09:23:03.351Z,6.2
2023-02-02T09:24:04.808Z,6.2
2023-02-02T09:25:06.192Z,6.2
2023-02-02T09:26:07.606Z,6.2
2023-02-02T09:27:09.014Z,6.2
2023-02-02T09:28:10.428Z,6.2
2023-02-02T09:29:11.866Z,6.2
2023-02-02T09:30:13.270Z,6.3
2023-02-02T09:31:14.805Z,6.3
2023-02-02T09:32:16.420Z,6.3
2023-02-02T09:33:17.832Z,6.3
2023-02-02T09:34:19.257Z,6.4
2023-02-02T09:35:20.674Z,6.4
2023-02-02T09:36:22.101Z,6.4
2023-02-02T09:37:23.501Z,6.4
2023-02-02T09:38:24.920Z,6.4
2023-02-02T09:39:26.358Z,6.5
2023-02-02T09:40:27.747Z,6.5
2023-02-02T09:41:29.181Z,6.5
2023-02-02T09:42:30.586Z,6.5
2023-02-02T09:43:32.001Z,6.6
2023-02-02T09:44:33.419Z,6.6
2023-02-02T09:45:34.885Z,6.6
2023-02-02T09:46:36.351Z,6.7
2023-02-02T09:47:37.881Z,6.7
2023-02-02T09:48:39.296Z,6.7
2023-02-02T09:49:40.732Z,6.7
2023-02-02T09:50:42.152Z,6.8
2023-02-02T09:51:43.561Z,6.8
2023-02-02T09:52:44.958Z,6.8
2023-02-02T09:53:54.972Z,6.8
2023-02-02T09:54:57.261Z,6.9
2023-02-02T09:55:58.642Z,6.9
2023-02-02T09:57:00.113Z,6.9
2023-02-02T09:58:01.494Z,6.9
2023-02-02T09:59:17.868Z,6.9
2023-02-02T10:00:25.174Z,6.9
2023-02-02T10:01:26.621Z,6.9
2023-02-02T10:02:28.170Z,6.9
2023-02-02T10:03:29.595Z,6.9
2023-02-02T10:04:31.123Z,6.9
2023-02-02T10:05:32.515Z,7
2023-02-02T10:06:33.940Z,7
2023-02-02T10:07:35.354Z,7
2023-02-02T10:08:36.755Z,7
2023-02-02T10:09:38.175Z,7
2023-02-02T10:10:39.612Z,7.1
2023-02-02T10:11:41.006Z,7.1
2023-02-02T10:12:42.441Z,7.1
2023-02-02T10:13:43.890Z,7.1
2023-02-02T10:14:45.346Z,7.2
2023-02-02T10:15:47.135Z,7.2
2023-02-02T10:16:48.525Z,7.2
2023-02-02T10:17:49.957Z,7.3
2023-02-02T10:18:51.362Z,7.2
2023-02-02T10:19:52.801Z,7.3
2023-02-02T10:20:53.883Z,7.2
2023-02-02T10:21:55.300Z,7.3
2023-02-02T10:22:56.727Z,7.2
2023-02-02T10:23:58.864Z,7.2
2023-02-02T10:25:03.281Z,7.2
2023-02-02T10:26:04.714Z,7.2
2023-02-02T10:27:06.165Z,7.2
2023-02-02T10:28:07.610Z,7.2
2023-02-02T10:29:08.997Z,7.2
2023-02-02T10:30:10.425Z,7.2
2023-02-02T10:31:11.929Z,7.2
2023-02-02T10:32:13.728Z,7.2
2023-02-02T10:33:15.171Z,7.2
2023-02-02T10:34:16.576Z,7.2
2023-02-02T10:35:17.991Z,7.2
2023-02-02T10:36:19.407Z,7.2
2023-02-02T10:37:20.821Z,7.2
2023-02-02T10:38:22.251Z,7.2
2023-02-02T10:39:23.658Z,7.1
2023-02-02T10:40:25.535Z,7.2
2023-02-02T10:41:28.243Z,7.1
2023-02-02T10:42:29.650Z,7.2
2023-02-02T10:43:31.073Z,7.2
2023-02-02T10:44:32.487Z,7.2
2023-02-02T10:45:33.904Z,7.2
2023-02-02T10:46:35.361Z,7.3
2023-02-02T10:47:37.094Z,7.3
2023-02-02T10:48:38.530Z,7.3
2023-02-02T10:49:39.998Z,7.3
2023-02-02T10:50:41.374Z,7.5
2023-02-02T10:51:42.789Z,7.5
2023-02-02T10:52:44.232Z,7.6
2023-02-02T10:53:45.636Z,7.6
2023-02-02T10:54:56.261Z,7.6
2023-02-02T10:56:03.348Z,7.6
2023-02-02T10:57:04.786Z,7.7
2023-02-02T10:58:06.190Z,7.8
2023-02-02T10:59:07.617Z,8
2023-02-02T11:00:09.168Z,8
2023-02-02T11:01:10.609Z,8
2023-02-02T11:02:20.582Z,8.1
2023-02-02T11:03:23.119Z,8.2
2023-02-02T11:04:24.606Z,8.2
2023-02-02T11:05:26.000Z,8.2
2023-02-02T11:06:27.452Z,8.2
2023-02-02T11:07:28.863Z,8.1
2023-02-02T11:08:30.446Z,8.1
2023-02-02T11:09:31.834Z,8.2
2023-02-02T11:10:33.245Z,8.2
2023-02-02T11:11:37.377Z,8.2
2023-02-02T11:12:38.870Z,8.2
2023-02-02T11:13:40.270Z,8.3
2023-02-02T11:14:45.339Z,8.3
2023-02-02T11:15:47.512Z,8.4
2023-02-02T11:16:49.294Z,8.4
2023-02-02T11:17:50.895Z,8.4
2023-02-02T11:18:52.285Z,8.4
2023-02-02T11:19:53.693Z,8.4
2023-02-02T11:20:55.110Z,8.4
2023-02-02T11:21:56.557Z,8.4
2023-02-02T11:22:57.960Z,8.3
2023-02-02T11:23:59.387Z,8.3
2023-02-02T11:25:00.793Z,8.3
2023-02-02T11:26:02.248Z,8.3
2023-02-02T11:27:03.753Z,8.3
2023-02-02T11:28:05.221Z,8.3
2023-02-02T11:29:06.660Z,8.2
2023-02-02T11:30:08.046Z,8.2
2023-02-02T11:31:09.563Z,8.2
2023-02-02T11:32:11.395Z,8.2
2023-02-02T11:33:12.799Z,8.2
2023-02-02T11:34:14.226Z,8.2
2023-02-02T11:35:15.634Z,8.2
2023-02-02T11:36:17.050Z,8.2
2023-02-02T11:37:18.463Z,8.2
2023-02-02T11:38:19.882Z,8.2
2023-02-02T11:39:21.314Z,8.1
2023-02-02T11:40:22.865Z,8.1
2023-02-02T11:41:25.787Z,8.1
2023-02-02T11:42:27.232Z,8.1
2023-02-02T11:43:28.722Z,8.1
2023-02-02T11:44:30.203Z,8.1
2023-02-02T11:45:31.616Z,8
2023-02-02T11:46:33.110Z,8.1
2023-02-02T11:47:34.735Z,8.1
2023-02-02T11:48:36.168Z,8.2
2023-02-02T11:49:37.723Z,8.3
2023-02-02T11:50:39.187Z,8.3
2023-02-02T11:51:40.769Z,8.3
2023-02-02T11:52:42.185Z,8.3
2023-02-02T11:53:43.628Z,8.3
2023-02-02T11:54:45.016Z,8.3
2023-02-02T11:55:46.431Z,8.3
2023-02-02T11:56:47.569Z,8.3
2023-02-02T11:57:48.985Z,8.3
2023-02-02T11:58:50.426Z,8.2
2023-02-02T11:59:51.816Z,8.1
2023-02-02T12:00:53.228Z,8.1
2023-02-02T12:01:54.667Z,8
2023-02-02T12:02:56.066Z,8
2023-02-02T12:03:57.513Z,7.9
2023-02-02T12:04:59.029Z,7.9
2023-02-02T12:06:00.440Z,7.9
2023-02-02T12:07:01.854Z,7.8
2023-02-02T12:08:03.283Z,7.8
2023-02-02T12:09:04.717Z,7.7
2023-02-02T12:10:06.116Z,7.6
2023-02-02T12:11:07.530Z,7.6
2023-02-02T12:12:08.940Z,7.6
2023-02-02T12:13:10.384Z,7.6
2023-02-02T12:14:11.833Z,7.5
2023-02-02T12:15:13.339Z,7.5
2023-02-02T12:16:14.787Z,7.5
2023-02-02T12:17:16.420Z,7.5
2023-02-02T12:18:17.829Z,7.5
2023-02-02T12:19:19.360Z,7.6
2023-02-02T12:20:20.753Z,7.6
2023-02-02T12:21:22.181Z,7.6
2023-02-02T12:22:23.586Z,7.7
2023-02-02T12:23:25.588Z,7.7
2023-02-02T12:24:27.003Z,7.7
2023-02-02T12:25:28.445Z,7.7
2023-02-02T12:26:29.669Z,7.7
2023-02-02T12:27:30.932Z,7.8
2023-02-02T12:28:32.342Z,7.8
2023-02-02T12:29:33.794Z,7.8
2023-02-02T12:30:35.488Z,7.8
2023-02-02T12:31:37.079Z,7.8
2023-02-02T12:32:38.578Z,7.8
2023-02-02T12:33:39.984Z,7.9
2023-02-02T12:34:41.548Z,7.9
2023-02-02T12:35:42.942Z,8
2023-02-02T12:36:44.418Z,8.1
2023-02-02T12:37:45.858Z,8.1
2023-02-02T12:38:47.245Z,8.1
2023-02-02T12:39:48.683Z,8.1
2023-02-02T12:40:50.061Z,8.1
2023-02-02T12:41:51.482Z,8.1
2023-02-02T12:42:52.898Z,8.1
2023-02-02T12:43:54.694Z,8.2
2023-02-02T12:44:56.143Z,8.3
2023-02-02T12:45:57.569Z,8.3
2023-02-02T12:46:59.117Z,8.3
2023-02-02T12:48:00.546Z,8.3
2023-02-02T12:49:01.946Z,8.3
2023-02-02T12:50:03.391Z,8.4
2023-02-02T12:51:04.784Z,8.4
2023-02-02T12:52:06.197Z,8.4
2023-02-02T12:53:07.611Z,8.4
2023-02-02T12:54:32.424Z,8.5
2023-02-02T12:55:56.846Z,8.6
2023-02-02T12:56:58.675Z,8.6
2023-02-02T12:58:00.099Z,8.6
2023-02-02T12:59:01.511Z,8.6
2023-02-02T13:00:02.966Z,8.7
2023-02-02T13:01:04.431Z,8.7
2023-02-02T13:02:05.955Z,8.7
2023-02-02T13:03:07.470Z,8.7
2023-02-02T13:04:08.880Z,8.7
2023-02-02T13:05:10.298Z,8.7
2023-02-02T13:06:11.843Z,8.7
2023-02-02T13:07:13.246Z,8.7
2023-02-02T13:08:14.668Z,8.7
2023-02-02T13:09:17.381Z,8.7
2023-02-02T13:10:21.038Z,8.6
2023-02-02T13:11:22.475Z,8.6
2023-02-02T13:12:23.867Z,8.6
2023-02-02T13:13:25.282Z,8.5
2023-02-02T13:14:26.698Z,8.5
2023-02-02T13:15:28.138Z,8.4
2023-02-02T13:16:29.626Z,8.4
2023-02-02T13:17:31.091Z,8.4
2023-02-02T13:18:32.500Z,8.4
2023-02-02T13:19:33.915Z,8.4
2023-02-02T13:20:35.331Z,8.4
2023-02-02T13:21:36.784Z,8.4
2023-02-02T13:22:38.211Z,8.4
2023-02-02T13:23:39.831Z,8.4
2023-02-02T13:24:41.238Z,8.4
2023-02-02T13:25:42.650Z,8.4
2023-02-02T13:26:44.139Z,8.5
2023-02-02T13:27:46.306Z,8.5
2023-02-02T13:28:47.688Z,8.5
2023-02-02T13:29:49.121Z,8.6
2023-02-02T13:30:50.654Z,8.6
2023-02-02T13:31:52.595Z,8.6
2023-02-02T13:32:54.310Z,8.6
2023-02-02T13:33:55.711Z,8.7
2023-02-02T13:34:57.143Z,8.7
2023-02-02T13:35:58.545Z,8.7
2023-02-02T13:36:59.978Z,8.7
2023-02-02T13:38:01.391Z,8.6
2023-02-02T13:39:02.817Z,8.6
2023-02-02T13:40:04.250Z,8.5
2023-02-02T13:41:05.654Z,8.5
2023-02-02T13:42:07.527Z,8.5
2023-02-02T13:43:08.963Z,8.4
2023-02-02T13:44:10.390Z,8.4
2023-02-02T13:45:11.851Z,8.4
2023-02-02T13:46:13.286Z,8.4
2023-02-02T13:47:15.233Z,8.3
2023-02-02T13:48:16.625Z,8.3
2023-02-02T13:49:18.047Z,8.3
2023-02-02T13:50:19.470Z,8.3
2023-02-02T13:51:20.901Z,8.3
2023-02-02T13:52:22.336Z,8.3
2023-02-02T13:53:23.737Z,8.3
2023-02-02T13:54:25.145Z,8.3
2023-02-02T13:55:26.898Z,8.3
2023-02-02T13:56:29.518Z,8.3
2023-02-02T13:57:31.189Z,8.2
2023-02-02T13:58:32.566Z,8.1
2023-02-02T13:59:34.031Z,8.1
2023-02-02T14:00:35.449Z,8
2023-02-02T14:01:36.898Z,8
2023-02-02T14:02:42.520Z,7.9
2023-02-02T14:03:44.100Z,7.9
2023-02-02T14:04:45.514Z,7.8
2023-02-02T14:05:46.945Z,7.8
2023-02-02T14:06:48.340Z,7.8
2023-02-02T14:07:49.811Z,7.8
2023-02-02T14:08:51.212Z,7.8
2023-02-02T14:09:52.646Z,7.7
2023-02-02T14:10:54.037Z,7.7
2023-02-02T14:11:55.444Z,7.7
2023-02-02T14:12:56.898Z,7.7
2023-02-02T14:13:58.280Z,7.7
2023-02-02T14:14:59.699Z,7.7
2023-02-02T14:16:01.177Z,7.7
2023-02-02T14:17:02.860Z,7.6